sensor_id;sensor_type;location;lat;lon;timestamp;P1;durP1;ratioP1;P2;durP2;ratioP2
57744;SDS011;58941;50.168;4.410;2023-06-22T00:01:47;1.40;;;1.30;;
57744;SDS011;58941;50.168;4.410;2023-06-22T00:04:12;2.58;;;1.50;;
57744;SDS011;58941;50.168;4.410;2023-06-22T00:06:38;2.38;;;1.40;;
57744;SDS011;58941;50.168;4.410;2023-06-22T00:09:03;1.50;;;1.40;;
57744;SDS011;58941;50.168;4.410;2023-06-22T00:11:29;1.40;;;1.30;;
57744;SDS011;58941;50.168;4.410;2023-06-22T00:13:54;1.75;;;1.42;;
57744;SDS011;58941;50.168;4.410;2023-06-22T00:16:20;1.30;;;1.20;;
57744;SDS011;58941;50.168;4.410;2023-06-22T00:18:45;1.63;;;1.50;;
57744;SDS011;58941;50.168;4.410;2023-06-22T00:21:12;1.42;;;1.33;;
57744;SDS011;58941;50.168;4.410;2023-06-22T00:23:38;2.58;;;1.42;;
57744;SDS011;58941;50.168;4.410;2023-06-22T00:26:03;1.65;;;1.33;;
57744;SDS011;58941;50.168;4.410;2023-06-22T00:28:29;1.85;;;1.50;;
57744;SDS011;58941;50.168;4.410;2023-06-22T00:30:55;1.77;;;1.30;;
57744;SDS011;58941;50.168;4.410;2023-06-22T00:33:21;1.40;;;1.17;;
57744;SDS011;58941;50.168;4.410;2023-06-22T00:35:46;1.63;;;1.45;;
57744;SDS011;58941;50.168;4.410;2023-06-22T00:38:12;1.20;;;1.10;;
57744;SDS011;58941;50.168;4.410;2023-06-22T00:40:37;2.38;;;1.50;;
57744;SDS011;58941;50.168;4.410;2023-06-22T00:43:03;1.27;;;1.17;;
57744;SDS011;58941;50.168;4.410;2023-06-22T00:45:30;1.40;;;1.30;;
57744;SDS011;58941;50.168;4.410;2023-06-22T00:47:58;1.50;;;1.35;;
57744;SDS011;58941;50.168;4.410;2023-06-22T00:50:25;1.25;;;1.15;;
57744;SDS011;58941;50.168;4.410;2023-06-22T00:52:51;1.85;;;1.50;;
57744;SDS011;58941;50.168;4.410;2023-06-22T00:55:18;1.30;;;1.20;;
57744;SDS011;58941;50.168;4.410;2023-06-22T00:57:46;1.42;;;1.33;;
57744;SDS011;58941;50.168;4.410;2023-06-22T01:00:13;1.83;;;1.40;;
57744;SDS011;58941;50.168;4.410;2023-06-22T01:02:42;1.40;;;1.30;;
57744;SDS011;58941;50.168;4.410;2023-06-22T01:05:10;1.50;;;1.40;;
57744;SDS011;58941;50.168;4.410;2023-06-22T01:07:36;1.60;;;1.40;;
57744;SDS011;58941;50.168;4.410;2023-06-22T01:10:16;1.63;;;1.33;;
57744;SDS011;58941;50.168;4.410;2023-06-22T01:12:45;1.58;;;1.42;;
57744;SDS011;58941;50.168;4.410;2023-06-22T01:15:14;3.95;;;1.70;;
57744;SDS011;58941;50.168;4.410;2023-06-22T01:17:40;1.27;;;1.17;;
57744;SDS011;58941;50.168;4.410;2023-06-22T01:20:08;1.40;;;1.30;;
57744;SDS011;58941;50.168;4.410;2023-06-22T01:22:38;1.45;;;1.27;;
57744;SDS011;58941;50.168;4.410;2023-06-22T01:25:21;1.73;;;1.58;;
57744;SDS011;58941;50.168;4.410;2023-06-22T01:30:26;1.48;;;1.20;;
57744;SDS011;58941;50.168;4.410;2023-06-22T01:32:53;2.25;;;1.40;;
57744;SDS011;58941;50.168;4.410;2023-06-22T01:35:19;1.45;;;1.35;;
57744;SDS011;58941;50.168;4.410;2023-06-22T01:37:45;1.48;;;1.30;;
57744;SDS011;58941;50.168;4.410;2023-06-22T01:40:11;1.30;;;1.20;;
57744;SDS011;58941;50.168;4.410;2023-06-22T01:42:37;1.52;;;1.25;;
57744;SDS011;58941;50.168;4.410;2023-06-22T01:45:03;1.70;;;1.25;;
57744;SDS011;58941;50.168;4.410;2023-06-22T01:47:29;1.88;;;1.35;;
57744;SDS011;58941;50.168;4.410;2023-06-22T01:49:55;1.50;;;1.40;;
57744;SDS011;58941;50.168;4.410;2023-06-22T01:52:21;1.38;;;1.27;;
57744;SDS011;58941;50.168;4.410;2023-06-22T01:54:46;1.20;;;1.10;;
57744;SDS011;58941;50.168;4.410;2023-06-22T01:57:12;1.92;;;1.25;;
57744;SDS011;58941;50.168;4.410;2023-06-22T02:02:06;1.02;;;1.02;;
57744;SDS011;58941;50.168;4.410;2023-06-22T02:04:46;1.40;;;1.30;;
57744;SDS011;58941;50.168;4.410;2023-06-22T02:09:39;1.30;;;1.20;;
57744;SDS011;58941;50.168;4.410;2023-06-22T02:12:07;1.38;;;1.27;;
57744;SDS011;58941;50.168;4.410;2023-06-22T02:14:34;1.30;;;1.20;;
57744;SDS011;58941;50.168;4.410;2023-06-22T02:17:00;1.48;;;1.17;;
57744;SDS011;58941;50.168;4.410;2023-06-22T02:19:26;1.27;;;1.17;;
57744;SDS011;58941;50.168;4.410;2023-06-22T02:21:52;1.33;;;1.20;;
57744;SDS011;58941;50.168;4.410;2023-06-22T02:24:17;1.60;;;1.38;;
57744;SDS011;58941;50.168;4.410;2023-06-22T02:26:43;1.42;;;1.20;;
57744;SDS011;58941;50.168;4.410;2023-06-22T02:29:10;1.50;;;1.30;;
57744;SDS011;58941;50.168;4.410;2023-06-22T02:31:36;1.30;;;1.20;;
57744;SDS011;58941;50.168;4.410;2023-06-22T02:34:01;1.77;;;1.40;;
57744;SDS011;58941;50.168;4.410;2023-06-22T02:36:27;1.25;;;1.15;;
57744;SDS011;58941;50.168;4.410;2023-06-22T02:38:56;1.77;;;1.30;;
57744;SDS011;58941;50.168;4.410;2023-06-22T02:41:26;1.52;;;1.05;;
57744;SDS011;58941;50.168;4.410;2023-06-22T02:43:51;1.85;;;1.30;;
57744;SDS011;58941;50.168;4.410;2023-06-22T02:46:17;1.42;;;1.23;;
57744;SDS011;58941;50.168;4.410;2023-06-22T02:48:42;2.22;;;1.40;;
57744;SDS011;58941;50.168;4.410;2023-06-22T02:51:08;1.98;;;1.40;;
57744;SDS011;58941;50.168;4.410;2023-06-22T02:53:33;1.23;;;1.13;;
57744;SDS011;58941;50.168;4.410;2023-06-22T02:56:00;1.73;;;1.33;;
57744;SDS011;58941;50.168;4.410;2023-06-22T02:58:26;1.33;;;1.23;;
57744;SDS011;58941;50.168;4.410;2023-06-22T03:00:52;2.03;;;1.30;;
57744;SDS011;58941;50.168;4.410;2023-06-22T03:03:18;1.70;;;1.35;;
57744;SDS011;58941;50.168;4.410;2023-06-22T03:05:44;1.30;;;1.20;;
57744;SDS011;58941;50.168;4.410;2023-06-22T03:08:10;1.45;;;1.20;;
57744;SDS011;58941;50.168;4.410;2023-06-22T03:10:35;1.80;;;1.42;;
57744;SDS011;58941;50.168;4.410;2023-06-22T03:13:01;1.65;;;1.33;;
57744;SDS011;58941;50.168;4.410;2023-06-22T03:15:26;1.92;;;1.30;;
57744;SDS011;58941;50.168;4.410;2023-06-22T03:17:55;1.33;;;1.10;;
57744;SDS011;58941;50.168;4.410;2023-06-22T03:20:20;1.40;;;1.27;;
57744;SDS011;58941;50.168;4.410;2023-06-22T03:22:46;1.33;;;1.13;;
57744;SDS011;58941;50.168;4.410;2023-06-22T03:25:11;1.67;;;1.30;;
57744;SDS011;58941;50.168;4.410;2023-06-22T03:27:40;1.20;;;1.10;;
57744;SDS011;58941;50.168;4.410;2023-06-22T03:30:07;1.35;;;1.20;;
57744;SDS011;58941;50.168;4.410;2023-06-22T03:32:32;1.17;;;1.08;;
57744;SDS011;58941;50.168;4.410;2023-06-22T03:34:58;1.35;;;1.20;;
57744;SDS011;58941;50.168;4.410;2023-06-22T03:37:27;2.10;;;1.38;;
57744;SDS011;58941;50.168;4.410;2023-06-22T03:39:53;1.55;;;1.42;;
57744;SDS011;58941;50.168;4.410;2023-06-22T03:42:18;1.40;;;1.20;;
57744;SDS011;58941;50.168;4.410;2023-06-22T03:44:44;1.58;;;1.30;;
57744;SDS011;58941;50.168;4.410;2023-06-22T03:47:09;1.25;;;1.15;;
57744;SDS011;58941;50.168;4.410;2023-06-22T03:49:35;2.50;;;1.38;;
57744;SDS011;58941;50.168;4.410;2023-06-22T03:52:01;1.48;;;1.30;;
57744;SDS011;58941;50.168;4.410;2023-06-22T03:54:27;1.50;;;1.30;;
57744;SDS011;58941;50.168;4.410;2023-06-22T03:56:53;1.48;;;1.35;;
57744;SDS011;58941;50.168;4.410;2023-06-22T03:59:18;1.30;;;1.20;;
57744;SDS011;58941;50.168;4.410;2023-06-22T04:01:44;1.00;;;0.95;;
57744;SDS011;58941;50.168;4.410;2023-06-22T04:04:10;1.70;;;1.27;;
57744;SDS011;58941;50.168;4.410;2023-06-22T04:06:35;1.20;;;1.10;;
57744;SDS011;58941;50.168;4.410;2023-06-22T04:09:01;1.23;;;1.13;;
57744;SDS011;58941;50.168;4.410;2023-06-22T04:11:26;1.25;;;1.10;;
57744;SDS011;58941;50.168;4.410;2023-06-22T04:13:52;1.40;;;1.30;;
57744;SDS011;58941;50.168;4.410;2023-06-22T04:16:17;1.85;;;1.50;;
57744;SDS011;58941;50.168;4.410;2023-06-22T04:18:43;1.40;;;1.30;;
57744;SDS011;58941;50.168;4.410;2023-06-22T04:21:09;2.25;;;1.38;;
57744;SDS011;58941;50.168;4.410;2023-06-22T04:23:35;1.50;;;1.40;;
57744;SDS011;58941;50.168;4.410;2023-06-22T04:26:00;1.58;;;1.33;;
57744;SDS011;58941;50.168;4.410;2023-06-22T04:28:26;1.60;;;1.50;;
57744;SDS011;58941;50.168;4.410;2023-06-22T04:30:51;1.38;;;1.23;;
57744;SDS011;58941;50.168;4.410;2023-06-22T04:33:17;1.50;;;1.20;;
57744;SDS011;58941;50.168;4.410;2023-06-22T04:35:46;1.30;;;1.20;;
57744;SDS011;58941;50.168;4.410;2023-06-22T04:38:12;1.65;;;1.17;;
57744;SDS011;58941;50.168;4.410;2023-06-22T04:40:41;1.40;;;1.30;;
57744;SDS011;58941;50.168;4.410;2023-06-22T04:43:06;2.13;;;1.50;;
57744;SDS011;58941;50.168;4.410;2023-06-22T04:45:32;1.77;;;1.35;;
57744;SDS011;58941;50.168;4.410;2023-06-22T04:47:58;1.40;;;1.27;;
57744;SDS011;58941;50.168;4.410;2023-06-22T04:50:24;1.77;;;1.50;;
57744;SDS011;58941;50.168;4.410;2023-06-22T04:52:50;2.15;;;1.52;;
57744;SDS011;58941;50.168;4.410;2023-06-22T04:55:15;2.20;;;1.50;;
57744;SDS011;58941;50.168;4.410;2023-06-22T04:57:47;1.42;;;1.33;;
57744;SDS011;58941;50.168;4.410;2023-06-22T05:00:16;1.90;;;1.48;;
57744;SDS011;58941;50.168;4.410;2023-06-22T05:02:43;1.55;;;1.40;;
57744;SDS011;58941;50.168;4.410;2023-06-22T05:05:09;1.90;;;1.35;;
57744;SDS011;58941;50.168;4.410;2023-06-22T05:07:42;1.50;;;1.38;;
57744;SDS011;58941;50.168;4.410;2023-06-22T05:10:09;1.85;;;1.75;;
57744;SDS011;58941;50.168;4.410;2023-06-22T05:12:36;2.05;;;1.30;;
57744;SDS011;58941;50.168;4.410;2023-06-22T05:15:01;2.03;;;1.30;;
57744;SDS011;58941;50.168;4.410;2023-06-22T05:17:27;1.50;;;1.40;;
57744;SDS011;58941;50.168;4.410;2023-06-22T05:19:52;1.63;;;1.33;;
57744;SDS011;58941;50.168;4.410;2023-06-22T05:22:18;1.88;;;1.63;;
57744;SDS011;58941;50.168;4.410;2023-06-22T05:24:44;1.75;;;1.40;;
57744;SDS011;58941;50.168;4.410;2023-06-22T05:27:10;1.73;;;1.58;;
57744;SDS011;58941;50.168;4.410;2023-06-22T05:29:38;1.88;;;1.60;;
57744;SDS011;58941;50.168;4.410;2023-06-22T05:32:04;1.80;;;1.70;;
57744;SDS011;58941;50.168;4.410;2023-06-22T05:34:30;1.77;;;1.52;;
57744;SDS011;58941;50.168;4.410;2023-06-22T05:36:55;1.70;;;1.60;;
57744;SDS011;58941;50.168;4.410;2023-06-22T05:39:21;1.70;;;1.58;;
57744;SDS011;58941;50.168;4.410;2023-06-22T05:41:46;1.65;;;1.55;;
57744;SDS011;58941;50.168;4.410;2023-06-22T05:44:12;1.50;;;1.40;;
57744;SDS011;58941;50.168;4.410;2023-06-22T05:46:40;2.33;;;1.60;;
57744;SDS011;58941;50.168;4.410;2023-06-22T05:49:10;1.63;;;1.52;;
57744;SDS011;58941;50.168;4.410;2023-06-22T05:51:36;1.63;;;1.52;;
57744;SDS011;58941;50.168;4.410;2023-06-22T05:54:02;2.20;;;1.70;;
57744;SDS011;58941;50.168;4.410;2023-06-22T05:56:27;2.75;;;1.50;;
57744;SDS011;58941;50.168;4.410;2023-06-22T05:58:53;2.83;;;1.80;;
57744;SDS011;58941;50.168;4.410;2023-06-22T06:01:21;1.65;;;1.55;;
57744;SDS011;58941;50.168;4.410;2023-06-22T06:03:47;2.88;;;2.20;;
57744;SDS011;58941;50.168;4.410;2023-06-22T06:06:15;3.25;;;1.85;;
57744;SDS011;58941;50.168;4.410;2023-06-22T06:08:41;2.42;;;2.10;;
57744;SDS011;58941;50.168;4.410;2023-06-22T06:11:07;2.38;;;1.85;;
57744;SDS011;58941;50.168;4.410;2023-06-22T06:13:32;2.30;;;2.10;;
57744;SDS011;58941;50.168;4.410;2023-06-22T06:15:58;2.20;;;1.90;;
57744;SDS011;58941;50.168;4.410;2023-06-22T06:18:24;2.00;;;1.80;;
57744;SDS011;58941;50.168;4.410;2023-06-22T06:20:49;2.65;;;1.98;;
57744;SDS011;58941;50.168;4.410;2023-06-22T06:23:15;1.75;;;1.58;;
57744;SDS011;58941;50.168;4.410;2023-06-22T06:25:40;2.00;;;1.80;;
57744;SDS011;58941;50.168;4.410;2023-06-22T06:28:06;3.17;;;1.77;;
57744;SDS011;58941;50.168;4.410;2023-06-22T06:30:32;2.08;;;1.70;;
57744;SDS011;58941;50.168;4.410;2023-06-22T06:32:57;1.92;;;1.80;;
57744;SDS011;58941;50.168;4.410;2023-06-22T06:35:23;2.25;;;2.00;;
57744;SDS011;58941;50.168;4.410;2023-06-22T06:37:51;2.17;;;1.98;;
57744;SDS011;58941;50.168;4.410;2023-06-22T06:40:17;2.63;;;2.22;;
57744;SDS011;58941;50.168;4.410;2023-06-22T06:42:43;4.25;;;2.13;;
57744;SDS011;58941;50.168;4.410;2023-06-22T06:45:20;3.08;;;2.05;;
57744;SDS011;58941;50.168;4.410;2023-06-22T06:47:47;3.65;;;2.53;;
57744;SDS011;58941;50.168;4.410;2023-06-22T06:50:13;2.50;;;2.30;;
57744;SDS011;58941;50.168;4.410;2023-06-22T06:52:39;2.95;;;2.10;;
57744;SDS011;58941;50.168;4.410;2023-06-22T06:55:04;2.28;;;2.05;;
57744;SDS011;58941;50.168;4.410;2023-06-22T06:57:30;2.67;;;2.28;;
57744;SDS011;58941;50.168;4.410;2023-06-22T06:59:56;3.38;;;2.38;;
57744;SDS011;58941;50.168;4.410;2023-06-22T07:02:22;2.58;;;2.38;;
57744;SDS011;58941;50.168;4.410;2023-06-22T07:04:47;2.35;;;2.15;;
57744;SDS011;58941;50.168;4.410;2023-06-22T07:07:14;3.15;;;2.65;;
57744;SDS011;58941;50.168;4.410;2023-06-22T07:09:39;4.00;;;2.80;;
57744;SDS011;58941;50.168;4.410;2023-06-22T07:12:05;3.08;;;2.53;;
57744;SDS011;58941;50.168;4.410;2023-06-22T07:14:30;3.45;;;2.53;;
57744;SDS011;58941;50.168;4.410;2023-06-22T07:16:57;3.00;;;2.40;;
57744;SDS011;58941;50.168;4.410;2023-06-22T07:19:26;3.20;;;2.70;;
57744;SDS011;58941;50.168;4.410;2023-06-22T07:21:55;3.78;;;3.03;;
57744;SDS011;58941;50.168;4.410;2023-06-22T07:24:21;3.45;;;3.00;;
57744;SDS011;58941;50.168;4.410;2023-06-22T07:26:47;3.17;;;2.88;;
57744;SDS011;58941;50.168;4.410;2023-06-22T07:29:13;3.65;;;2.42;;
57744;SDS011;58941;50.168;4.410;2023-06-22T07:31:39;5.50;;;3.58;;
57744;SDS011;58941;50.168;4.410;2023-06-22T07:34:06;3.53;;;3.20;;
57744;SDS011;58941;50.168;4.410;2023-06-22T07:36:32;3.50;;;3.20;;
57744;SDS011;58941;50.168;4.410;2023-06-22T07:38:57;5.65;;;3.00;;
57744;SDS011;58941;50.168;4.410;2023-06-22T07:41:23;3.42;;;3.10;;
57744;SDS011;58941;50.168;4.410;2023-06-22T07:43:49;4.10;;;3.00;;
57744;SDS011;58941;50.168;4.410;2023-06-22T07:46:15;3.67;;;2.90;;
57744;SDS011;58941;50.168;4.410;2023-06-22T07:48:40;3.60;;;2.47;;
57744;SDS011;58941;50.168;4.410;2023-06-22T07:51:07;2.83;;;2.55;;
57744;SDS011;58941;50.168;4.410;2023-06-22T07:53:33;3.17;;;2.40;;
57744;SDS011;58941;50.168;4.410;2023-06-22T07:55:58;4.18;;;2.65;;
57744;SDS011;58941;50.168;4.410;2023-06-22T07:58:23;3.08;;;2.78;;
57744;SDS011;58941;50.168;4.410;2023-06-22T08:00:49;3.20;;;2.60;;
57744;SDS011;58941;50.168;4.410;2023-06-22T08:03:15;2.83;;;2.50;;
57744;SDS011;58941;50.168;4.410;2023-06-22T08:05:40;2.60;;;2.15;;
57744;SDS011;58941;50.168;4.410;2023-06-22T08:08:06;3.05;;;2.25;;
57744;SDS011;58941;50.168;4.410;2023-06-22T08:10:33;3.13;;;2.55;;
57744;SDS011;58941;50.168;4.410;2023-06-22T08:12:59;2.72;;;2.35;;
57744;SDS011;58941;50.168;4.410;2023-06-22T08:15:26;2.55;;;2.30;;
57744;SDS011;58941;50.168;4.410;2023-06-22T08:17:52;2.85;;;2.55;;
57744;SDS011;58941;50.168;4.410;2023-06-22T08:20:17;3.05;;;2.53;;
57744;SDS011;58941;50.168;4.410;2023-06-22T08:22:43;3.17;;;2.40;;
57744;SDS011;58941;50.168;4.410;2023-06-22T08:25:09;2.80;;;2.55;;
57744;SDS011;58941;50.168;4.410;2023-06-22T08:27:34;2.80;;;2.28;;
57744;SDS011;58941;50.168;4.410;2023-06-22T08:30:00;3.65;;;2.20;;
57744;SDS011;58941;50.168;4.410;2023-06-22T08:32:27;3.08;;;1.90;;
57744;SDS011;58941;50.168;4.410;2023-06-22T08:34:53;3.17;;;2.40;;
57744;SDS011;58941;50.168;4.410;2023-06-22T08:37:19;2.33;;;1.88;;
57744;SDS011;58941;50.168;4.410;2023-06-22T08:39:44;2.13;;;1.80;;
57744;SDS011;58941;50.168;4.410;2023-06-22T08:42:10;2.75;;;2.33;;
57744;SDS011;58941;50.168;4.410;2023-06-22T08:44:37;2.13;;;1.88;;
57744;SDS011;58941;50.168;4.410;2023-06-22T08:47:02;2.63;;;2.40;;
57744;SDS011;58941;50.168;4.410;2023-06-22T08:49:28;2.88;;;2.03;;
57744;SDS011;58941;50.168;4.410;2023-06-22T08:51:54;2.65;;;1.85;;
57744;SDS011;58941;50.168;4.410;2023-06-22T08:54:22;3.25;;;2.30;;
57744;SDS011;58941;50.168;4.410;2023-06-22T08:56:48;2.17;;;1.98;;
57744;SDS011;58941;50.168;4.410;2023-06-22T08:59:13;2.72;;;2.35;;
57744;SDS011;58941;50.168;4.410;2023-06-22T09:01:39;2.17;;;1.98;;
57744;SDS011;58941;50.168;4.410;2023-06-22T09:04:05;5.43;;;2.40;;
57744;SDS011;58941;50.168;4.410;2023-06-22T09:06:32;3.20;;;2.30;;
57744;SDS011;58941;50.168;4.410;2023-06-22T09:08:58;4.15;;;2.47;;
57744;SDS011;58941;50.168;4.410;2023-06-22T09:11:27;2.88;;;2.53;;
57744;SDS011;58941;50.168;4.410;2023-06-22T09:13:52;4.95;;;2.88;;
57744;SDS011;58941;50.168;4.410;2023-06-22T09:16:19;3.33;;;2.90;;
57744;SDS011;58941;50.168;4.410;2023-06-22T09:18:47;2.65;;;2.33;;
57744;SDS011;58941;50.168;4.410;2023-06-22T09:21:13;3.67;;;2.47;;
57744;SDS011;58941;50.168;4.410;2023-06-22T09:23:38;6.13;;;2.80;;
57744;SDS011;58941;50.168;4.410;2023-06-22T09:26:04;4.15;;;2.70;;
57744;SDS011;58941;50.168;4.410;2023-06-22T09:28:29;3.20;;;2.58;;
57744;SDS011;58941;50.168;4.410;2023-06-22T09:30:55;2.53;;;2.28;;
57744;SDS011;58941;50.168;4.410;2023-06-22T09:33:24;2.90;;;2.40;;
57744;SDS011;58941;50.168;4.410;2023-06-22T09:35:49;5.47;;;3.15;;
57744;SDS011;58941;50.168;4.410;2023-06-22T09:38:16;8.95;;;3.33;;
57744;SDS011;58941;50.168;4.410;2023-06-22T09:40:41;4.00;;;2.80;;
57744;SDS011;58941;50.168;4.410;2023-06-22T09:43:07;3.70;;;2.72;;
57744;SDS011;58941;50.168;4.410;2023-06-22T09:45:33;3.83;;;3.03;;
57744;SDS011;58941;50.168;4.410;2023-06-22T09:47:58;3.25;;;2.80;;
57744;SDS011;58941;50.168;4.410;2023-06-22T09:50:24;3.20;;;2.42;;
57744;SDS011;58941;50.168;4.410;2023-06-22T09:52:49;3.05;;;2.42;;
57744;SDS011;58941;50.168;4.410;2023-06-22T09:55:15;3.15;;;2.80;;
57744;SDS011;58941;50.168;4.410;2023-06-22T09:57:41;3.88;;;2.90;;
57744;SDS011;58941;50.168;4.410;2023-06-22T10:00:07;3.17;;;2.88;;
57744;SDS011;58941;50.168;4.410;2023-06-22T10:02:38;3.67;;;2.80;;
57744;SDS011;58941;50.168;4.410;2023-06-22T10:05:04;3.70;;;2.92;;
57744;SDS011;58941;50.168;4.410;2023-06-22T10:07:29;3.10;;;2.80;;
57744;SDS011;58941;50.168;4.410;2023-06-22T10:09:55;3.03;;;2.60;;
57744;SDS011;58941;50.168;4.410;2023-06-22T10:12:20;4.45;;;2.67;;
57744;SDS011;58941;50.168;4.410;2023-06-22T10:14:46;4.15;;;2.85;;
57744;SDS011;58941;50.168;4.410;2023-06-22T10:17:11;4.47;;;3.10;;
57744;SDS011;58941;50.168;4.410;2023-06-22T10:19:37;4.25;;;3.00;;
57744;SDS011;58941;50.168;4.410;2023-06-22T10:22:04;3.00;;;2.70;;
57744;SDS011;58941;50.168;4.410;2023-06-22T10:24:30;3.15;;;2.55;;
57744;SDS011;58941;50.168;4.410;2023-06-22T10:26:55;2.88;;;2.40;;
57744;SDS011;58941;50.168;4.410;2023-06-22T10:29:21;4.22;;;2.72;;
57744;SDS011;58941;50.168;4.410;2023-06-22T10:31:46;5.57;;;2.80;;
57744;SDS011;58941;50.168;4.410;2023-06-22T10:34:12;3.78;;;3.08;;
57744;SDS011;58941;50.168;4.410;2023-06-22T10:36:38;3.60;;;2.90;;
57744;SDS011;58941;50.168;4.410;2023-06-22T10:39:03;3.92;;;3.38;;
57744;SDS011;58941;50.168;4.410;2023-06-22T10:41:29;4.28;;;3.35;;
57744;SDS011;58941;50.168;4.410;2023-06-22T10:43:56;4.05;;;3.20;;
57744;SDS011;58941;50.168;4.410;2023-06-22T10:46:23;3.60;;;2.90;;
57744;SDS011;58941;50.168;4.410;2023-06-22T10:48:50;3.42;;;3.13;;
57744;SDS011;58941;50.168;4.410;2023-06-22T10:51:15;3.95;;;2.90;;
57744;SDS011;58941;50.168;4.410;2023-06-22T10:53:41;3.00;;;2.50;;
57744;SDS011;58941;50.168;4.410;2023-06-22T10:56:06;3.70;;;3.20;;
57744;SDS011;58941;50.168;4.410;2023-06-22T10:58:32;2.88;;;2.60;;
57744;SDS011;58941;50.168;4.410;2023-06-22T11:00:57;3.33;;;3.03;;
57744;SDS011;58941;50.168;4.410;2023-06-22T11:03:24;3.05;;;2.80;;
57744;SDS011;58941;50.168;4.410;2023-06-22T11:05:49;3.78;;;3.15;;
57744;SDS011;58941;50.168;4.410;2023-06-22T11:08:15;4.75;;;3.70;;
57744;SDS011;58941;50.168;4.410;2023-06-22T11:10:40;5.50;;;3.83;;
57744;SDS011;58941;50.168;4.410;2023-06-22T11:13:06;8.02;;;4.43;;
57744;SDS011;58941;50.168;4.410;2023-06-22T11:15:35;4.60;;;4.07;;
57744;SDS011;58941;50.168;4.410;2023-06-22T11:18:00;4.35;;;3.35;;
57744;SDS011;58941;50.168;4.410;2023-06-22T11:20:26;3.65;;;3.22;;
57744;SDS011;58941;50.168;4.410;2023-06-22T11:22:52;4.20;;;3.42;;
57744;SDS011;58941;50.168;4.410;2023-06-22T11:25:17;5.20;;;3.65;;
57744;SDS011;58941;50.168;4.410;2023-06-22T11:27:43;3.50;;;3.20;;
57744;SDS011;58941;50.168;4.410;2023-06-22T11:30:08;4.22;;;3.40;;
57744;SDS011;58941;50.168;4.410;2023-06-22T11:32:34;4.25;;;3.30;;
57744;SDS011;58941;50.168;4.410;2023-06-22T11:34:59;3.33;;;3.03;;
57744;SDS011;58941;50.168;4.410;2023-06-22T11:37:25;5.22;;;3.70;;
57744;SDS011;58941;50.168;4.410;2023-06-22T11:39:51;3.95;;;3.45;;
57744;SDS011;58941;50.168;4.410;2023-06-22T11:42:17;4.38;;;3.42;;
57744;SDS011;58941;50.168;4.410;2023-06-22T11:44:42;4.03;;;3.50;;
57744;SDS011;58941;50.168;4.410;2023-06-22T11:47:09;5.00;;;3.97;;
57744;SDS011;58941;50.168;4.410;2023-06-22T11:49:34;4.63;;;4.22;;
57744;SDS011;58941;50.168;4.410;2023-06-22T11:52:00;4.20;;;3.80;;
57744;SDS011;58941;50.168;4.410;2023-06-22T11:54:25;3.97;;;3.08;;
57744;SDS011;58941;50.168;4.410;2023-06-22T11:56:51;4.32;;;3.55;;
57744;SDS011;58941;50.168;4.410;2023-06-22T11:59:16;4.47;;;3.60;;
57744;SDS011;58941;50.168;4.410;2023-06-22T12:01:42;4.15;;;3.70;;
57744;SDS011;58941;50.168;4.410;2023-06-22T12:04:07;4.75;;;3.33;;
57744;SDS011;58941;50.168;4.410;2023-06-22T12:06:37;5.55;;;3.08;;
57744;SDS011;58941;50.168;4.410;2023-06-22T12:09:03;3.85;;;3.17;;
57744;SDS011;58941;50.168;4.410;2023-06-22T12:11:30;5.32;;;3.38;;
57744;SDS011;58941;50.168;4.410;2023-06-22T12:13:55;3.92;;;3.50;;
57744;SDS011;58941;50.168;4.410;2023-06-22T12:16:21;4.35;;;3.60;;
57744;SDS011;58941;50.168;4.410;2023-06-22T12:18:47;3.60;;;2.97;;
57744;SDS011;58941;50.168;4.410;2023-06-22T12:21:12;4.40;;;3.35;;
57744;SDS011;58941;50.168;4.410;2023-06-22T12:23:38;4.40;;;3.22;;
57744;SDS011;58941;50.168;4.410;2023-06-22T12:26:04;3.78;;;3.00;;
57744;SDS011;58941;50.168;4.410;2023-06-22T12:28:29;3.53;;;3.22;;
57744;SDS011;58941;50.168;4.410;2023-06-22T12:30:54;5.82;;;3.83;;
57744;SDS011;58941;50.168;4.410;2023-06-22T12:33:20;4.18;;;3.50;;
57744;SDS011;58941;50.168;4.410;2023-06-22T12:35:45;4.13;;;3.05;;
57744;SDS011;58941;50.168;4.410;2023-06-22T12:38:11;3.80;;;3.25;;
57744;SDS011;58941;50.168;4.410;2023-06-22T12:40:37;3.45;;;3.15;;
57744;SDS011;58941;50.168;4.410;2023-06-22T12:43:02;4.43;;;3.00;;
57744;SDS011;58941;50.168;4.410;2023-06-22T12:45:28;3.85;;;3.53;;
57744;SDS011;58941;50.168;4.410;2023-06-22T12:47:57;4.60;;;3.40;;
57744;SDS011;58941;50.168;4.410;2023-06-22T12:50:22;3.10;;;2.88;;
57744;SDS011;58941;50.168;4.410;2023-06-22T12:52:48;3.90;;;3.38;;
57744;SDS011;58941;50.168;4.410;2023-06-22T12:55:13;3.22;;;2.92;;
57744;SDS011;58941;50.168;4.410;2023-06-22T12:57:39;3.67;;;3.38;;
57744;SDS011;58941;50.168;4.410;2023-06-22T13:00:05;3.63;;;3.13;;
57744;SDS011;58941;50.168;4.410;2023-06-22T13:02:33;4.43;;;3.42;;
57744;SDS011;58941;50.168;4.410;2023-06-22T13:04:58;3.50;;;3.20;;
57744;SDS011;58941;50.168;4.410;2023-06-22T13:07:24;3.40;;;3.00;;
57744;SDS011;58941;50.168;4.410;2023-06-22T13:09:49;3.95;;;3.00;;
57744;SDS011;58941;50.168;4.410;2023-06-22T13:12:19;3.55;;;3.25;;
57744;SDS011;58941;50.168;4.410;2023-06-22T13:14:45;3.60;;;3.30;;
57744;SDS011;58941;50.168;4.410;2023-06-22T13:17:12;3.50;;;3.20;;
57744;SDS011;58941;50.168;4.410;2023-06-22T13:19:38;3.45;;;3.15;;
57744;SDS011;58941;50.168;4.410;2023-06-22T13:22:03;3.45;;;3.00;;
57744;SDS011;58941;50.168;4.410;2023-06-22T13:24:29;3.70;;;3.17;;
57744;SDS011;58941;50.168;4.410;2023-06-22T13:26:54;3.65;;;3.00;;
57744;SDS011;58941;50.168;4.410;2023-06-22T13:29:20;3.58;;;3.00;;
57744;SDS011;58941;50.168;4.410;2023-06-22T13:31:45;3.88;;;2.80;;
57744;SDS011;58941;50.168;4.410;2023-06-22T13:34:11;3.42;;;3.13;;
57744;SDS011;58941;50.168;4.410;2023-06-22T13:36:37;3.08;;;2.50;;
57744;SDS011;58941;50.168;4.410;2023-06-22T13:39:03;3.72;;;3.08;;
57744;SDS011;58941;50.168;4.410;2023-06-22T13:41:29;3.63;;;3.17;;
57744;SDS011;58941;50.168;4.410;2023-06-22T13:43:54;4.15;;;2.88;;
57744;SDS011;58941;50.168;4.410;2023-06-22T13:46:20;3.45;;;2.70;;
57744;SDS011;58941;50.168;4.410;2023-06-22T13:48:45;3.15;;;2.83;;
57744;SDS011;58941;50.168;4.410;2023-06-22T13:51:14;3.53;;;2.63;;
57744;SDS011;58941;50.168;4.410;2023-06-22T13:53:39;3.25;;;2.70;;
57744;SDS011;58941;50.168;4.410;2023-06-22T13:56:04;3.10;;;2.78;;
57744;SDS011;58941;50.168;4.410;2023-06-22T13:58:30;2.80;;;2.60;;
57744;SDS011;58941;50.168;4.410;2023-06-22T14:00:56;2.83;;;2.63;;
57744;SDS011;58941;50.168;4.410;2023-06-22T14:03:21;4.03;;;2.92;;
57744;SDS011;58941;50.168;4.410;2023-06-22T14:05:46;2.97;;;2.67;;
57744;SDS011;58941;50.168;4.410;2023-06-22T14:08:12;3.40;;;3.10;;
57744;SDS011;58941;50.168;4.410;2023-06-22T14:10:37;3.15;;;2.72;;
57744;SDS011;58941;50.168;4.410;2023-06-22T14:13:03;2.83;;;2.58;;
57744;SDS011;58941;50.168;4.410;2023-06-22T14:15:31;3.13;;;2.65;;
57744;SDS011;58941;50.168;4.410;2023-06-22T14:17:57;3.33;;;2.90;;
57744;SDS011;58941;50.168;4.410;2023-06-22T14:20:22;3.30;;;2.88;;
57744;SDS011;58941;50.168;4.410;2023-06-22T14:22:48;2.80;;;2.50;;
57744;SDS011;58941;50.168;4.410;2023-06-22T14:25:13;3.08;;;2.88;;
57744;SDS011;58941;50.168;4.410;2023-06-22T14:27:39;3.00;;;2.60;;
57744;SDS011;58941;50.168;4.410;2023-06-22T14:30:04;2.75;;;2.38;;
57744;SDS011;58941;50.168;4.410;2023-06-22T14:32:30;3.55;;;2.53;;
57744;SDS011;58941;50.168;4.410;2023-06-22T14:34:56;3.22;;;2.53;;
57744;SDS011;58941;50.168;4.410;2023-06-22T14:37:21;2.58;;;2.38;;
57744;SDS011;58941;50.168;4.410;2023-06-22T14:39:47;3.05;;;2.50;;
57744;SDS011;58941;50.168;4.410;2023-06-22T14:42:12;4.38;;;2.20;;
57744;SDS011;58941;50.168;4.410;2023-06-22T14:44:37;2.97;;;2.70;;
57744;SDS011;58941;50.168;4.410;2023-06-22T14:47:03;2.83;;;2.63;;
57744;SDS011;58941;50.168;4.410;2023-06-22T14:49:28;3.88;;;2.38;;